To NAV CANADA Home Page Login to a new session Search on AWWS site Feedback and Comments Disclaimer Vers la page française équivalente Tips FAQ What's new on the site To the Forecasts and Observations / NOTAM section To "File a Flight Plan" website Publications and other links Update of the User's profile FIC Telephone Numbers My Weather Data Folder Route Weather Data Regional Weather Data Local Weather Data To the Forecasts and Observations / NOTAM section
Request Generated 04/30/2017 at 05:01:31 UTC . Weather information available at that time is displayed.

METAR/TAF

WINNIPEG/JAMES ARMSTRONG RICHARDSON INTL/MB    

METAR CYWG 300400Z 17013KT 15SM SKC 10/M05 A3017 RMK SLP224=
METAR CYWG 300300Z 17011KT 15SM FEW140 FEW240 10/M05 A3017 RMK AC1CI1
SLP224=
METAR CYWG 300200Z 17012KT 15SM FEW140 BKN220 12/M06 A3018 RMK AC1CI7
AC TR SLP227=

TAF CYWG 292338Z 3000/3024 19012KT P6SM FEW120 SCT260
RMK NXT FCST BY 300600Z=
Your time UTC time
Weather data provided by Environment Canada and NAV CANADA